Time;durP1;ratioP1;P1;durP2;ratioP2;P2;SDS_P1;SDS_P2;PMS_P1;PMS_P2;Temp;Humidity;BMP_temperature;BMP_pressure;BME280_temperature;BME280_humidity;BME280_pressure;Samples;Min_cycle;Max_cycle;Signal;HPM_P1;HPM_P2
2022/12/21 00:01:13;;;;;;;98.57;22.60;;;9.30;99.70;;;;;;5103197;28;20023;-58
2022/12/21 00:03:38;;;;;;;103.18;22.30;;;9.30;99.70;;;;;;5103880;28;20033;-59
2022/12/21 00:06:04;;;;;;;92.40;22.80;;;9.30;99.90;;;;;;5105409;28;20031;-58
2022/12/21 00:08:34;;;;;;;109.80;23.20;;;9.30;99.60;;;;;;5103667;28;20046;-58
2022/12/21 00:10:59;;;;;;;90.03;20.38;;;9.30;99.60;;;;;;5104922;28;20024;-58
2022/12/21 00:13:25;;;;;;;83.05;20.13;;;9.30;99.60;;;;;;5103618;28;20119;-58
2022/12/21 00:16:05;;;;;;;100.18;22.80;;;9.30;99.60;;;;;;5105437;28;20024;-58
2022/12/21 00:18:31;;;;;;;87.95;21.63;;;9.30;99.60;;;;;;5087773;28;20096;-57
2022/12/21 00:20:58;;;;;;;77.93;21.42;;;9.30;99.60;;;;;;5104430;28;20026;-58
2022/12/21 00:23:23;;;;;;;76.80;22.40;;;9.30;99.60;;;;;;5105983;28;20032;-58
2022/12/21 00:25:49;;;;;;;93.10;22.25;;;9.30;99.60;;;;;;5104783;28;20078;-58
2022/12/21 00:28:14;;;;;;;72.53;20.95;;;9.30;99.60;;;;;;5104661;28;20050;-58
2022/12/21 00:30:40;;;;;;;78.75;19.92;;;9.30;99.60;;;;;;5104553;28;20043;-58
2022/12/21 00:33:05;;;;;;;96.70;22.50;;;9.30;99.60;;;;;;5103363;28;20026;-58
2022/12/21 00:35:31;;;;;;;81.57;21.33;;;9.30;99.60;;;;;;5069493;28;20024;-58
2022/12/21 00:37:56;;;;;;;80.90;21.48;;;9.30;99.60;;;;;;5103124;28;20024;-58
2022/12/21 00:40:22;;;;;;;85.88;21.02;;;9.30;99.60;;;;;;5104276;28;20077;-58
2022/12/21 00:42:47;;;;;;;76.55;21.90;;;9.30;99.60;;;;;;5102990;28;20043;-59
2022/12/21 00:45:13;;;;;;;107.93;24.02;;;9.30;99.60;;;;;;5102859;28;20032;-58
2022/12/21 00:47:39;;;;;;;99.20;23.13;;;9.30;99.60;;;;;;5103112;28;20020;-58
2022/12/21 00:50:05;;;;;;;95.38;23.92;;;9.30;99.70;;;;;;5104460;28;20032;-59
2022/12/21 00:52:30;;;;;;;86.30;22.85;;;9.30;99.80;;;;;;5105506;28;20031;-58
2022/12/21 00:54:56;;;;;;;77.20;22.27;;;9.30;99.90;;;;;;5106679;28;20456;-58
2022/12/21 00:57:22;;;;;;;90.55;22.90;;;9.30;99.90;;;;;;5089920;28;20174;-58
2022/12/21 00:59:47;;;;;;;90.00;22.70;;;9.30;99.90;;;;;;5106599;28;20036;-58
2022/12/21 01:02:13;;;;;;;79.20;22.58;;;9.30;99.80;;;;;;5108010;28;20047;-58
2022/12/21 01:04:38;;;;;;;86.05;21.98;;;9.20;99.60;;;;;;5106426;28;20040;-58
2022/12/21 01:07:04;;;;;;;70.38;20.40;;;9.20;99.60;;;;;;5106453;28;20020;-58
2022/12/21 01:09:29;;;;;;;74.03;21.33;;;9.20;99.60;;;;;;5089390;28;20036;-58
2022/12/21 01:11:55;;;;;;;70.15;19.45;;;9.30;99.90;;;;;;5107870;28;20062;-59
2022/12/21 01:14:20;;;;;;;77.80;19.75;;;9.20;99.60;;;;;;5106347;28;20134;-58
2022/12/21 01:16:46;;;;;;;76.68;20.48;;;9.20;99.60;;;;;;5106400;28;20029;-58
2022/12/21 01:19:11;;;;;;;69.05;20.23;;;9.20;99.60;;;;;;5106187;28;20115;-58
2022/12/21 01:21:37;;;;;;;68.78;19.55;;;9.20;99.50;;;;;;5089194;28;20024;-58
2022/12/21 01:24:02;;;;;;;72.93;19.60;;;9.30;99.60;;;;;;5072181;28;20024;-58
2022/12/21 01:26:28;;;;;;;70.45;18.80;;;9.20;99.50;;;;;;5107399;28;20513;-58
2022/12/21 01:28:54;;;;;;;71.63;19.67;;;9.20;99.50;;;;;;5089155;28;20111;-58
2022/12/21 01:31:19;;;;;;;71.32;19.85;;;9.20;99.50;;;;;;5088990;28;20032;-58
2022/12/21 01:33:45;;;;;;;73.68;19.40;;;9.20;99.50;;;;;;5089226;28;20032;-58
2022/12/21 01:36:13;;;;;;;68.45;20.67;;;9.20;99.50;;;;;;5105778;28;20035;-58
2022/12/21 01:38:39;;;;;;;60.92;19.60;;;9.20;99.50;;;;;;5106346;28;20039;-58
2022/12/21 01:41:05;;;;;;;69.03;20.58;;;9.20;99.50;;;;;;5089493;28;20028;-58
2022/12/21 01:43:47;;;;;;;79.47;19.63;;;9.20;99.50;;;;;;5105452;28;20043;-58
2022/12/21 01:46:17;;;;;;;63.08;18.55;;;9.20;99.50;;;;;;5105851;28;20024;-59
2022/12/21 01:48:45;;;;;;;58.35;17.75;;;9.20;99.50;;;;;;5088717;28;20052;-58
2022/12/21 01:51:11;;;;;;;57.78;17.80;;;9.20;99.50;;;;;;5088999;28;20119;-58
2022/12/21 01:53:51;;;;;;;68.00;18.92;;;9.20;99.50;;;;;;5105692;28;20139;-58
2022/12/21 01:56:19;;;;;;;68.65;19.08;;;9.20;99.60;;;;;;5105728;28;20083;-58
2022/12/21 01:58:44;;;;;;;70.18;19.15;;;9.20;99.90;;;;;;5072200;28;20056;-58
2022/12/21 02:01:10;;;;;;;55.60;18.02;;;9.20;99.70;;;;;;5105534;28;20020;-58
2022/12/21 02:03:41;;;;;;;66.35;17.60;;;9.20;99.70;;;;;;5106509;28;20047;-58
2022/12/21 02:06:09;;;;;;;52.28;17.77;;;9.20;99.70;;;;;;5088726;28;20024;-58
2022/12/21 02:08:34;;;;;;;59.25;18.67;;;9.20;99.70;;;;;;5088599;28;20024;-58
2022/12/21 02:11:00;;;;;;;62.65;17.75;;;9.20;99.60;;;;;;5088449;28;20055;-58
2022/12/21 02:13:25;;;;;;;57.65;17.33;;;9.20;99.60;;;;;;5071585;28;20040;-58
2022/12/21 02:16:00;;;;;;;44.95;18.13;;;9.20;99.60;;;;;;5105392;28;20039;-58
2022/12/21 02:18:47;;;;;;;61.47;17.30;;;9.20;99.60;;;;;;5106638;28;20441;-58
2022/12/21 02:21:29;;;;;;;51.33;16.80;;;9.20;99.50;;;;;;5106469;28;20024;-58
2022/12/21 02:24:30;;;;;;;48.50;16.42;;;9.20;99.50;;;;;;5071761;28;20177;-57
2022/12/21 02:27:18;;;;;;;49.28;16.05;;;9.20;99.50;;;;;;5089661;28;20025;-58
2022/12/21 02:30:03;;;;;;;45.72;17.08;;;9.20;99.50;;;;;;5105271;28;20107;-58
2022/12/21 02:32:53;;;;;;;53.60;15.80;;;9.20;99.50;;;;;;5104766;28;20021;-59
2022/12/21 02:35:37;;;;;;;47.08;16.15;;;9.20;99.50;;;;;;5104563;28;20781;-60
2022/12/21 02:38:08;;;;;;;52.80;16.42;;;9.20;99.50;;;;;;5106105;28;20241;-58
2022/12/21 02:41:12;;;;;;;52.10;15.68;;;9.20;99.50;;;;;;5105852;28;20020;-58
2022/12/21 02:44:15;;;;;;;47.25;16.50;;;9.20;99.50;;;;;;5104645;28;20048;-58
2022/12/21 02:46:49;;;;;;;49.28;16.08;;;9.20;99.50;;;;;;5090669;28;20340;-58
2022/12/21 02:49:52;;;;;;;50.05;17.95;;;9.20;99.40;;;;;;5104597;28;20083;-58
2022/12/21 02:52:57;;;;;;;44.72;17.27;;;9.20;99.40;;;;;;5104688;28;20043;-58
2022/12/21 02:55:25;;;;;;;54.28;17.67;;;9.20;99.40;;;;;;5089892;28;20044;-58
2022/12/21 02:57:51;;;;;;;56.95;18.45;;;9.20;99.40;;;;;;5087694;28;20077;-58
2022/12/21 03:00:17;;;;;;;53.03;17.67;;;9.20;99.40;;;;;;5101326;28;20032;-58
2022/12/21 03:05:52;;;;;;;38.38;16.15;;;9.30;99.40;;;;;;5105518;28;20109;-58
2022/12/21 03:08:49;;;;;;;50.97;17.13;;;9.30;99.40;;;;;;5105509;28;20028;-58
2022/12/21 03:11:15;;;;;;;42.35;15.88;;;9.30;99.50;;;;;;5104492;28;20020;-58
2022/12/21 03:13:50;;;;;;;45.90;15.65;;;9.30;99.60;;;;;;5087047;28;20383;-59
2022/12/21 03:16:18;;;;;;;40.20;15.20;;;9.30;99.70;;;;;;5087653;28;20073;-59
2022/12/21 03:18:58;;;;;;;35.78;14.45;;;9.30;99.90;;;;;;5105451;28;20448;-58
2022/12/21 03:21:26;;;;;;;43.15;13.75;;;9.30;99.90;;;;;;5104136;28;20103;-58
2022/12/21 03:24:06;;;;;;;46.80;15.25;;;9.30;99.90;;;;;;5103798;28;20055;-58
2022/12/21 03:26:38;;;;;;;39.53;14.43;;;9.40;99.90;;;;;;5103921;28;20028;-59
2022/12/21 03:29:03;;;;;;;34.20;14.90;;;9.40;99.90;;;;;;5070831;28;20042;-59
2022/12/21 03:31:32;;;;;;;43.55;14.93;;;9.40;99.90;;;;;;5086897;28;20047;-58
2022/12/21 03:34:03;;;;;;;42.08;13.73;;;9.40;99.90;;;;;;5087175;28;20104;-59
2022/12/21 03:36:36;;;;;;;41.85;14.77;;;9.40;99.90;;;;;;5087205;28;20044;-59
2022/12/21 03:39:12;;;;;;;41.85;14.48;;;9.40;99.90;;;;;;5071324;28;20040;-58
2022/12/21 03:41:44;;;;;;;43.88;14.48;;;9.40;99.90;;;;;;5088677;28;20127;-59
2022/12/21 03:44:11;;;;;;;40.65;15.07;;;9.40;99.90;;;;;;5086914;28;20040;-59
2022/12/21 03:46:52;;;;;;;43.40;14.50;;;9.50;99.90;;;;;;5103809;28;20024;-59
2022/12/21 03:49:24;;;;;;;36.78;13.68;;;9.50;99.90;;;;;;5087040;28;20024;-59
2022/12/21 03:51:58;;;;;;;37.70;13.43;;;9.50;99.90;;;;;;5087385;28;20127;-59
2022/12/21 03:54:30;;;;;;;40.17;13.10;;;9.50;99.90;;;;;;5070366;28;20039;-59
2022/12/21 03:56:55;;;;;;;38.83;13.65;;;9.50;99.90;;;;;;5103536;28;20056;-59
2022/12/21 03:59:21;;;;;;;31.58;13.65;;;9.50;99.90;;;;;;5103469;28;20391;-59
2022/12/21 04:02:03;;;;;;;31.15;12.63;;;9.50;99.90;;;;;;5086876;28;20034;-58
2022/12/21 04:04:31;;;;;;;28.15;11.93;;;9.50;99.90;;;;;;5103382;28;20051;-58
2022/12/21 04:06:58;;;;;;;34.97;12.18;;;9.50;99.90;;;;;;5103425;28;20028;-58
2022/12/21 04:09:23;;;;;;;39.05;13.05;;;9.50;99.90;;;;;;5103502;28;20135;-58
2022/12/21 04:14:33;;;;;;;32.40;11.75;;;9.50;99.90;;;;;;5104903;28;20066;-59
2022/12/21 04:16:59;;;;;;;33.38;12.27;;;9.50;99.90;;;;;;5086396;28;20020;-58
2022/12/21 04:22:08;;;;;;;29.17;11.88;;;9.50;99.90;;;;;;5103501;28;20034;-57
2022/12/21 04:30:03;;;;;;;25.35;11.55;;;9.40;99.90;;;;;;5108884;28;20043;-59
2022/12/21 04:32:29;;;;;;;27.00;11.73;;;9.40;99.90;;;;;;5107206;28;20055;-58
2022/12/21 04:34:55;;;;;;;30.25;12.25;;;9.40;99.90;;;;;;5108588;28;20031;-58
2022/12/21 04:37:32;;;;;;;32.42;11.55;;;9.40;99.90;;;;;;5090221;28;20357;-59
2022/12/21 04:39:59;;;;;;;28.30;11.38;;;9.50;99.90;;;;;;5107534;28;20032;-58
2022/12/21 04:42:24;;;;;;;27.98;12.02;;;9.40;99.90;;;;;;5107387;28;20031;-59
2022/12/21 04:44:50;;;;;;;33.88;12.27;;;9.40;99.90;;;;;;5107335;28;20439;-59
2022/12/21 04:47:16;;;;;;;26.15;10.77;;;9.50;99.90;;;;;;5090032;28;20035;-59
2022/12/21 04:49:41;;;;;;;34.67;11.80;;;9.50;99.90;;;;;;5106840;28;20028;-59
2022/12/21 04:52:07;;;;;;;28.48;10.98;;;9.50;99.90;;;;;;5108375;28;20046;-59
2022/12/21 04:54:32;;;;;;;30.88;11.43;;;9.50;99.90;;;;;;5090054;28;20122;-59
2022/12/21 04:56:58;;;;;;;30.65;11.07;;;9.50;99.90;;;;;;5108238;28;20024;-59
2022/12/21 04:59:24;;;;;;;35.50;11.32;;;9.50;99.90;;;;;;5106669;28;20039;-59
2022/12/21 05:01:50;;;;;;;26.33;10.63;;;9.50;99.90;;;;;;5089690;28;20028;-59
2022/12/21 05:04:15;;;;;;;34.53;11.73;;;9.50;99.90;;;;;;5107822;28;20039;-59
2022/12/21 05:06:41;;;;;;;26.08;11.00;;;9.50;99.90;;;;;;5089550;28;20016;-59
2022/12/21 05:09:06;;;;;;;27.75;10.73;;;9.50;99.90;;;;;;5106414;28;20028;-59
2022/12/21 05:11:32;;;;;;;20.65;9.32;;;9.50;99.90;;;;;;5089523;28;20040;-59
2022/12/21 05:13:57;;;;;;;29.92;11.30;;;9.60;99.90;;;;;;5106537;28;20036;-59
2022/12/21 05:16:23;;;;;;;25.83;10.20;;;9.60;99.90;;;;;;5107821;28;20028;-59
2022/12/21 05:18:49;;;;;;;26.83;10.40;;;9.60;99.90;;;;;;5106378;28;20066;-58
2022/12/21 05:21:14;;;;;;;29.90;10.82;;;9.60;99.90;;;;;;5106168;28;20061;-59
2022/12/21 05:23:40;;;;;;;27.80;10.70;;;9.50;99.90;;;;;;5089300;28;20388;-59
2022/12/21 05:26:06;;;;;;;19.70;9.18;;;9.50;99.90;;;;;;5106272;28;20030;-59
2022/12/21 05:28:31;;;;;;;27.58;10.48;;;9.60;99.90;;;;;;5106188;28;20028;-59
2022/12/21 05:30:57;;;;;;;25.23;10.02;;;9.60;99.90;;;;;;5089233;28;20031;-59
2022/12/21 05:33:23;;;;;;;31.08;10.20;;;9.60;99.90;;;;;;5106033;28;20046;-59
2022/12/21 05:35:48;;;;;;;19.88;9.63;;;9.60;99.90;;;;;;5107248;28;20028;-59
2022/12/21 05:38:14;;;;;;;25.42;9.40;;;9.60;99.90;;;;;;5088843;28;20024;-59
2022/12/21 05:40:39;;;;;;;25.02;9.45;;;9.60;99.90;;;;;;5107249;28;20548;-59
2022/12/21 05:43:05;;;;;;;19.00;9.90;;;9.60;99.90;;;;;;5105554;28;20024;-58
2022/12/21 05:45:31;;;;;;;22.60;9.35;;;9.60;99.90;;;;;;5106174;28;20028;-59
2022/12/21 05:47:57;;;;;;;20.60;8.13;;;9.60;99.90;;;;;;5107130;28;20040;-58
2022/12/21 05:50:22;;;;;;;19.55;8.75;;;9.60;99.90;;;;;;5105704;28;20020;-59
2022/12/21 05:52:48;;;;;;;26.55;8.85;;;9.60;99.90;;;;;;5105668;28;20036;-59
2022/12/21 05:55:14;;;;;;;22.13;9.75;;;9.60;99.90;;;;;;5088462;28;20227;-59
2022/12/21 05:57:39;;;;;;;21.50;9.65;;;9.60;99.90;;;;;;5105543;28;20028;-59
2022/12/21 06:00:05;;;;;;;26.52;10.18;;;9.60;99.90;;;;;;5107026;28;20036;-59
2022/12/21 06:02:31;;;;;;;22.92;9.32;;;9.60;99.90;;;;;;5106843;28;20032;-59
2022/12/21 06:04:57;;;;;;;23.27;9.27;;;9.60;99.90;;;;;;5088467;28;20028;-59
2022/12/21 06:07:22;;;;;;;19.10;9.35;;;9.60;99.90;;;;;;5106720;28;20130;-59
2022/12/21 06:09:48;;;;;;;20.08;9.15;;;9.60;99.90;;;;;;5105058;28;20024;-59
2022/12/21 06:12:13;;;;;;;27.00;8.50;;;9.60;99.90;;;;;;5106697;28;20042;-59
2022/12/21 06:14:39;;;;;;;21.77;8.32;;;9.60;99.90;;;;;;5105325;28;20044;-59
2022/12/21 06:17:04;;;;;;;17.58;8.48;;;9.60;99.90;;;;;;5105232;28;20024;-59
2022/12/21 06:19:30;;;;;;;18.67;8.43;;;9.60;99.90;;;;;;5106639;28;20036;-59
2022/12/21 06:21:55;;;;;;;27.25;8.95;;;9.60;99.90;;;;;;5105139;28;20024;-59
2022/12/21 06:24:21;;;;;;;18.88;8.73;;;9.60;99.90;;;;;;5106330;28;20067;-59
2022/12/21 06:26:47;;;;;;;18.10;8.82;;;9.60;99.90;;;;;;5105020;28;20031;-59
2022/12/21 06:29:12;;;;;;;24.70;8.18;;;9.60;99.90;;;;;;5104888;28;20467;-58
2022/12/21 06:31:38;;;;;;;14.57;7.85;;;9.60;99.90;;;;;;5105036;28;20032;-59
2022/12/21 06:34:03;;;;;;;17.90;8.25;;;9.70;99.90;;;;;;5087916;28;20095;-59
2022/12/21 06:36:30;;;;;;;18.45;8.82;;;9.60;99.90;;;;;;5087226;28;20456;-58
2022/12/21 06:38:56;;;;;;;16.20;7.88;;;9.60;99.90;;;;;;5106334;28;20043;-59
2022/12/21 06:41:21;;;;;;;21.98;8.65;;;9.60;99.90;;;;;;5106645;28;20028;-59
2022/12/21 06:43:47;;;;;;;18.20;8.90;;;9.60;99.90;;;;;;5087720;28;20036;-59
2022/12/21 06:46:14;;;;;;;20.65;9.00;;;9.70;99.90;;;;;;5070733;28;20042;-59
2022/12/21 06:48:40;;;;;;;20.25;8.30;;;9.70;99.90;;;;;;5104628;28;20032;-58
2022/12/21 06:51:08;;;;;;;18.13;8.10;;;9.70;99.90;;;;;;5087173;28;20024;-58
2022/12/21 06:53:35;;;;;;;18.02;7.68;;;9.70;99.90;;;;;;5087558;28;20032;-59
2022/12/21 06:56:05;;;;;;;19.58;7.53;;;9.70;99.90;;;;;;5104486;28;20030;-59
2022/12/21 06:58:30;;;;;;;21.25;8.20;;;9.60;99.90;;;;;;5105282;28;20040;-59
2022/12/21 07:00:56;;;;;;;17.35;7.80;;;9.70;99.90;;;;;;5087812;28;20020;-59
2022/12/21 07:03:22;;;;;;;17.65;7.45;;;9.60;99.90;;;;;;5106178;28;20032;-59
2022/12/21 07:05:49;;;;;;;17.52;8.50;;;9.70;99.90;;;;;;5105895;28;20035;-59
2022/12/21 07:08:15;;;;;;;21.40;8.13;;;9.70;99.90;;;;;;5104134;28;20044;-59
2022/12/21 07:10:41;;;;;;;18.67;7.47;;;9.70;99.90;;;;;;5105657;28;20043;-59
2022/12/21 07:13:06;;;;;;;17.10;7.22;;;9.70;99.90;;;;;;5086962;28;20054;-58
2022/12/21 07:15:32;;;;;;;19.38;8.00;;;9.70;99.90;;;;;;5087152;28;20618;-59
2022/12/21 07:17:58;;;;;;;20.65;7.88;;;9.70;99.90;;;;;;5105172;28;20052;-58
2022/12/21 07:20:23;;;;;;;13.20;6.65;;;9.70;99.90;;;;;;5103932;28;20448;-59
2022/12/21 07:22:49;;;;;;;21.70;6.88;;;9.70;99.90;;;;;;5087177;28;20054;-59
2022/12/21 07:25:15;;;;;;;13.82;6.43;;;9.70;99.90;;;;;;5103742;28;20070;-59
2022/12/21 07:27:40;;;;;;;16.35;6.40;;;9.70;99.90;;;;;;5105348;28;20024;-59
2022/12/21 07:30:06;;;;;;;15.02;6.93;;;9.70;99.90;;;;;;5103847;28;20031;-59
2022/12/21 07:32:32;;;;;;;23.17;6.65;;;9.70;99.90;;;;;;5103666;28;20099;-59
2022/12/21 07:34:58;;;;;;;22.02;7.45;;;9.70;99.90;;;;;;5105595;28;20032;-58
2022/12/21 07:37:23;;;;;;;19.75;7.20;;;9.70;99.90;;;;;;5104242;28;20043;-58
2022/12/21 07:39:49;;;;;;;15.50;6.32;;;9.70;99.90;;;;;;5103959;28;20057;-58
2022/12/21 07:42:14;;;;;;;22.30;6.28;;;9.70;99.90;;;;;;5103964;28;20055;-59
2022/12/21 07:44:40;;;;;;;13.05;5.95;;;9.70;99.90;;;;;;5103385;28;20036;-58
2022/12/21 07:47:05;;;;;;;15.80;5.88;;;9.70;99.90;;;;;;5103853;28;20024;-59
2022/12/21 07:49:31;;;;;;;15.27;6.05;;;9.70;99.90;;;;;;5105050;28;20145;-59
2022/12/21 07:51:56;;;;;;;13.00;5.30;;;9.70;99.90;;;;;;5104969;28;20052;-58
2022/12/21 07:54:23;;;;;;;11.52;5.05;;;9.70;99.90;;;;;;5103421;28;20452;-59
2022/12/21 07:56:48;;;;;;;13.07;5.05;;;9.70;99.90;;;;;;5103467;28;20032;-59
2022/12/21 07:59:14;;;;;;;13.70;5.35;;;9.70;99.90;;;;;;5104922;28;20032;-59
2022/12/21 08:01:39;;;;;;;10.90;5.43;;;9.70;99.90;;;;;;5072641;28;20032;-59
2022/12/21 08:04:07;;;;;;;15.57;5.65;;;9.70;99.90;;;;;;5108742;28;20046;-58
2022/12/21 08:06:33;;;;;;;17.77;5.40;;;9.70;99.90;;;;;;5107643;28;20028;-59
2022/12/21 08:08:59;;;;;;;10.95;5.22;;;9.70;99.90;;;;;;5090626;28;20080;-59
2022/12/21 08:11:24;;;;;;;18.20;5.60;;;9.70;99.90;;;;;;5107934;28;20054;-59
2022/12/21 08:13:50;;;;;;;22.63;7.05;;;9.70;99.90;;;;;;5109351;28;20087;-59
2022/12/21 08:16:17;;;;;;;21.15;5.68;;;9.70;99.90;;;;;;5107936;28;20472;-59
2022/12/21 08:18:43;;;;;;;22.98;6.47;;;9.70;99.90;;;;;;5090504;28;20486;-59
2022/12/21 08:21:09;;;;;;;15.20;5.43;;;9.70;99.90;;;;;;5073616;28;20066;-58
2022/12/21 08:23:34;;;;;;;28.58;7.28;;;9.70;99.90;;;;;;5106919;28;20024;-58
2022/12/21 08:26:08;;;;;;;20.98;6.30;;;9.70;99.90;;;;;;5089747;28;20643;-59
2022/12/21 08:28:33;;;;;;;17.08;5.50;;;9.70;99.90;;;;;;5107208;28;20024;-58
2022/12/21 08:31:03;;;;;;;21.63;6.15;;;9.70;99.90;;;;;;5107074;28;20073;-59
2022/12/21 08:33:29;;;;;;;15.60;6.25;;;9.70;99.90;;;;;;5091361;28;20055;-59
2022/12/21 08:35:55;;;;;;;22.25;5.63;;;9.70;99.90;;;;;;5086785;28;20020;-58
2022/12/21 08:38:21;;;;;;;23.17;6.05;;;9.70;99.90;;;;;;5069991;28;20055;-58
2022/12/21 08:40:46;;;;;;;20.92;6.05;;;9.70;99.90;;;;;;5086650;28;20096;-58
2022/12/21 08:43:12;;;;;;;13.63;5.88;;;9.70;99.90;;;;;;5086228;28;20033;-58
2022/12/21 08:45:39;;;;;;;25.60;6.20;;;9.70;99.90;;;;;;5086675;28;20040;-59
2022/12/21 08:48:05;;;;;;;29.60;6.15;;;9.80;99.90;;;;;;5086868;28;20143;-59
2022/12/21 08:50:30;;;;;;;18.25;5.68;;;9.70;99.90;;;;;;5086470;28;20101;-58
2022/12/21 08:52:56;;;;;;;19.58;5.53;;;9.70;99.90;;;;;;5086371;28;20017;-58
2022/12/21 08:55:21;;;;;;;20.13;6.07;;;9.80;99.90;;;;;;5086519;28;20472;-59
2022/12/21 08:57:47;;;;;;;24.90;6.72;;;9.80;99.90;;;;;;5087484;28;20372;-58
2022/12/21 09:00:13;;;;;;;30.08;6.78;;;9.80;99.90;;;;;;5087142;28;20040;-58
2022/12/21 09:02:38;;;;;;;21.98;5.63;;;9.80;99.90;;;;;;5086568;28;20506;-59
2022/12/21 09:05:04;;;;;;;23.02;6.32;;;9.80;99.90;;;;;;5086005;28;20028;-58
2022/12/21 09:07:29;;;;;;;27.73;6.70;;;9.80;99.90;;;;;;5086416;28;20031;-59
2022/12/21 09:09:55;;;;;;;16.48;5.68;;;9.80;99.90;;;;;;5086302;28;20032;-59
2022/12/21 09:12:20;;;;;;;22.25;5.78;;;9.80;99.90;;;;;;5085470;28;20032;-59
2022/12/21 09:14:46;;;;;;;38.95;7.22;;;9.80;99.90;;;;;;5085932;28;20028;-59
2022/12/21 09:17:11;;;;;;;32.55;7.00;;;9.80;99.90;;;;;;5087253;28;20032;-59
2022/12/21 09:19:37;;;;;;;34.00;6.97;;;9.80;99.90;;;;;;5086248;28;20033;-58
2022/12/21 09:22:02;;;;;;;21.67;5.97;;;9.80;99.90;;;;;;5087553;28;20029;-58
2022/12/21 09:24:28;;;;;;;31.42;6.85;;;9.80;99.90;;;;;;5085493;28;20052;-58
2022/12/21 09:26:54;;;;;;;30.58;6.05;;;9.80;99.90;;;;;;5087175;28;20086;-59
2022/12/21 09:29:22;;;;;;;28.42;5.47;;;9.80;99.90;;;;;;5087223;28;20036;-59
2022/12/21 09:31:50;;;;;;;31.73;6.97;;;9.80;99.90;;;;;;5087356;28;20035;-58
2022/12/21 09:34:15;;;;;;;34.97;7.72;;;9.80;99.90;;;;;;5087091;28;20032;-59
2022/12/21 09:36:41;;;;;;;31.85;6.68;;;9.80;99.90;;;;;;5085787;28;20055;-57
2022/12/21 09:39:06;;;;;;;23.80;6.55;;;9.80;99.90;;;;;;5085372;28;20055;-59
2022/12/21 09:41:50;;;;;;;19.83;6.32;;;9.80;99.90;;;;;;5085455;28;20033;-59
2022/12/21 09:45:17;;;;;;;25.25;5.97;;;9.80;99.90;;;;;;5085356;28;20358;-59
2022/12/21 09:47:44;;;;;;;24.75;6.70;;;9.80;99.90;;;;;;5026092;28;20025;-59
2022/12/21 09:50:26;;;;;;;35.20;6.78;;;9.80;99.90;;;;;;5065134;28;20079;-59
2022/12/21 09:53:11;;;;;;;28.38;6.47;;;9.80;99.90;;;;;;5083246;28;20095;-59
2022/12/21 09:55:40;;;;;;;26.35;6.50;;;9.80;99.90;;;;;;5083539;28;20028;-59
2022/12/21 09:58:11;;;;;;;30.98;7.05;;;9.80;99.90;;;;;;5066127;28;20177;-59
2022/12/21 10:00:37;;;;;;;29.02;6.53;;;9.80;99.90;;;;;;5083125;28;20020;-59
2022/12/21 10:03:30;;;;;;;23.80;5.53;;;9.80;99.90;;;;;;5083047;28;20024;-58
2022/12/21 10:06:13;;;;;;;37.30;6.53;;;9.80;99.90;;;;;;5084729;28;20036;-59
2022/12/21 10:08:57;;;;;;;30.60;5.95;;;9.80;99.90;;;;;;5085088;28;20036;-58
2022/12/21 10:11:32;;;;;;;28.42;5.47;;;9.90;99.90;;;;;;5084949;28;20036;-59
2022/12/21 10:14:09;;;;;;;41.83;6.65;;;9.90;99.90;;;;;;5084619;28;20029;-59
2022/12/21 10:16:51;;;;;;;29.00;6.50;;;9.90;99.90;;;;;;5068016;28;20024;-59
2022/12/21 10:19:32;;;;;;;30.38;6.60;;;9.90;99.90;;;;;;5084883;28;20040;-59
2022/12/21 10:22:04;;;;;;;19.60;5.45;;;9.90;99.90;;;;;;5085080;28;20028;-58
2022/12/21 10:24:35;;;;;;;29.60;6.25;;;9.90;99.90;;;;;;5084324;28;20060;-59
2022/12/21 10:27:04;;;;;;;47.15;7.05;;;9.90;99.90;;;;;;5083971;28;20117;-58
2022/12/21 10:29:34;;;;;;;34.00;6.05;;;9.90;99.90;;;;;;5082576;28;20036;-59
2022/12/21 10:32:00;;;;;;;58.08;8.23;;;9.90;99.90;;;;;;5084260;28;20025;-58
2022/12/21 10:34:34;;;;;;;35.70;7.00;;;10.00;99.90;;;;;;5083498;28;20025;-58
2022/12/21 10:37:01;;;;;;;39.33;7.43;;;9.90;99.90;;;;;;5100833;28;20025;-58
2022/12/21 10:39:26;;;;;;;32.97;6.85;;;10.00;99.90;;;;;;5085567;28;20051;-59
2022/12/21 10:42:09;;;;;;;41.30;8.38;;;10.00;99.90;;;;;;5101030;28;20080;-59
2022/12/21 10:44:39;;;;;;;42.10;7.55;;;10.00;99.90;;;;;;5083485;28;20040;-58
2022/12/21 10:47:14;;;;;;;49.72;6.88;;;10.00;99.90;;;;;;5083560;28;20028;-59
2022/12/21 10:49:40;;;;;;;;;;;10.00;99.90;;;;;;5067597;28;20040;-59
2022/12/21 10:52:24;;;;;;;;;;;10.00;99.90;;;;;;5084258;28;19904;-58
2022/12/21 10:54:50;;;;;;;53.50;8.55;;;10.00;99.90;;;;;;5085260;28;19973;-58
2022/12/21 10:57:15;;;;;;;54.70;8.30;;;10.00;99.90;;;;;;5083303;28;20036;-58
2022/12/21 10:59:41;;;;;;;48.72;7.78;;;10.00;99.90;;;;;;5083680;28;20440;-59
2022/12/21 11:02:09;;;;;;;54.78;8.20;;;10.10;99.90;;;;;;5083498;28;20052;-58
2022/12/21 11:04:35;;;;;;;39.20;8.35;;;10.10;99.90;;;;;;5083698;28;20092;-59
2022/12/21 11:07:08;;;;;;;58.53;9.38;;;10.10;99.90;;;;;;5085073;28;20021;-58
2022/12/21 11:09:35;;;;;;;51.38;8.02;;;10.10;99.90;;;;;;5083415;28;20028;-59
2022/12/21 11:12:20;;;;;;;63.50;8.35;;;10.10;99.90;;;;;;5067469;28;20132;-58
2022/12/21 11:14:46;;;;;;;63.88;9.13;;;10.10;99.90;;;;;;5083474;28;20042;-58
2022/12/21 11:17:35;;;;;;;35.92;7.10;;;10.10;99.90;;;;;;5083405;28;20032;-58
2022/12/21 11:20:09;;;;;;;46.05;6.97;;;10.10;99.90;;;;;;5083453;28;20516;-58
2022/12/21 11:22:35;;;;;;;47.08;7.35;;;10.20;99.90;;;;;;5083367;28;20029;-59
2022/12/21 11:25:00;;;;;;;37.75;6.13;;;10.20;99.90;;;;;;5083122;28;20063;-58
2022/12/21 11:27:30;;;;;;;45.03;7.35;;;10.20;99.90;;;;;;5083414;28;20042;-59
2022/12/21 11:30:08;;;;;;;42.47;6.47;;;10.20;99.90;;;;;;5083377;28;20506;-58
2022/12/21 11:32:33;;;;;;;45.05;6.43;;;10.20;99.90;;;;;;5083504;28;20024;-58
2022/12/21 11:35:04;;;;;;;38.80;6.50;;;10.30;99.90;;;;;;5082671;28;20024;-61
2022/12/21 11:37:35;;;;;;;28.77;5.18;;;10.20;99.90;;;;;;5067544;28;20028;-59
2022/12/21 11:40:16;;;;;;;41.97;6.47;;;10.20;99.90;;;;;;5084690;28;20044;-59
2022/12/21 11:42:51;;;;;;;42.80;6.00;;;10.30;99.90;;;;;;5083921;28;20039;-59
2022/12/21 11:45:46;;;;;;;45.40;6.20;;;10.30;99.90;;;;;;5084453;28;20044;-59
2022/12/21 11:48:35;;;;;;;34.47;5.75;;;10.30;99.90;;;;;;5074864;28;20060;-59
2022/12/21 11:51:10;;;;;;;26.52;5.65;;;10.30;99.90;;;;;;5083090;28;20028;-59
2022/12/21 11:53:54;;;;;;;31.10;5.55;;;10.30;99.90;;;;;;5082969;28;20444;-59
2022/12/21 11:56:42;;;;;;;32.20;5.10;;;10.30;99.90;;;;;;5083648;28;20048;-59
2022/12/21 11:59:14;;;;;;;23.45;5.88;;;10.30;99.90;;;;;;5067625;28;20032;-59
2022/12/21 12:02:18;;;;;;;23.00;4.80;;;10.30;99.90;;;;;;5083709;28;20055;-59
2022/12/21 12:05:22;;;;;;;21.92;4.38;;;10.30;99.90;;;;;;5075807;28;20040;-59
2022/12/21 12:07:54;;;;;;;31.30;5.18;;;10.40;99.90;;;;;;5061999;28;20108;-59
2022/12/21 12:10:23;;;;;;;28.88;4.03;;;10.40;99.90;;;;;;5076364;28;20036;-59
2022/12/21 12:13:12;;;;;;;16.73;4.07;;;10.40;99.90;;;;;;5084663;28;20078;-59
2022/12/21 12:15:53;;;;;;;19.90;4.30;;;10.40;99.90;;;;;;5083205;28;20473;-59
2022/12/21 12:18:35;;;;;;;21.08;4.72;;;10.40;99.90;;;;;;5066494;28;20038;-59
2022/12/21 12:21:06;;;;;;;20.90;4.40;;;10.40;99.90;;;;;;5083462;28;20032;-59
2022/12/21 12:23:51;;;;;;;46.45;5.40;;;10.40;99.90;;;;;;5084263;28;20444;-59
2022/12/21 12:26:20;;;;;;;36.67;5.17;;;10.40;99.90;;;;;;5084308;28;20036;-59
2022/12/21 12:29:17;;;;;;;37.90;5.50;;;10.50;99.90;;;;;;5092937;28;20054;-59
2022/12/21 12:31:54;;;;;;;31.70;6.03;;;10.50;99.90;;;;;;5096222;28;20089;-58
2022/12/21 12:34:19;;;;;;;37.45;5.18;;;10.40;99.90;;;;;;5100992;28;20028;-59
2022/12/21 12:37:26;;;;;;;19.58;4.00;;;10.50;99.90;;;;;;5104381;28;20051;-59
2022/12/21 12:40:09;;;;;;;33.97;4.60;;;10.50;99.90;;;;;;5096342;28;20035;-59
2022/12/21 12:42:41;;;;;;;28.48;3.90;;;10.50;99.90;;;;;;5079644;28;20043;-59
2022/12/21 12:45:28;;;;;;;36.05;5.13;;;10.50;99.90;;;;;;5079003;28;20035;-59
2022/12/21 12:48:41;;;;;;;38.38;4.68;;;10.50;99.90;;;;;;5104580;28;20024;-59
2022/12/21 12:51:22;;;;;;;20.13;4.47;;;10.50;99.90;;;;;;5070087;28;20048;-59
2022/12/21 12:54:26;;;;;;;21.65;3.95;;;10.60;99.90;;;;;;5064891;28;20056;-59
2022/12/21 12:57:11;;;;;;;34.25;5.22;;;10.60;99.90;;;;;;4997402;28;20033;-59
2022/12/21 12:59:56;;;;;;;39.05;5.15;;;10.60;99.90;;;;;;5080920;28;20025;-58
2022/12/21 13:02:49;;;;;;;43.38;5.60;;;10.60;99.90;;;;;;5071033;28;21313;-59
2022/12/21 13:05:45;;;;;;;68.38;9.63;;;10.70;99.90;;;;;;5077155;28;20038;-59
2022/12/21 13:08:17;;;;;;;16.87;5.23;;;10.70;99.90;;;;;;5082308;28;20040;-59
2022/12/21 13:10:52;;;;;;;18.63;4.53;;;10.70;99.90;;;;;;5101404;28;20336;-59
2022/12/21 13:13:31;;;;;;;23.70;4.93;;;10.70;99.90;;;;;;5083623;28;20086;-59